sensor_id;sensor_type;location;lat;lon;timestamp;P1;durP1;ratioP1;P2;durP2;ratioP2
466;SDS011;72290;48.808;9.222;2023-12-14T06:03:05;10.70;;;4.33;;
466;SDS011;72290;48.808;9.222;2023-12-14T06:05:31;6.93;;;4.90;;
466;SDS011;72290;48.808;9.222;2023-12-14T06:07:57;12.20;;;5.50;;
466;SDS011;72290;48.808;9.222;2023-12-14T06:10:23;4.10;;;3.43;;
466;SDS011;72290;48.808;9.222;2023-12-14T06:12:48;5.43;;;4.07;;
466;SDS011;72290;48.808;9.222;2023-12-14T06:15:14;5.70;;;4.50;;
466;SDS011;72290;48.808;9.222;2023-12-14T06:17:41;5.77;;;3.80;;
466;SDS011;72290;48.808;9.222;2023-12-14T06:20:07;7.87;;;3.83;;
466;SDS011;72290;48.808;9.222;2023-12-14T06:22:33;10.20;;;5.77;;
466;SDS011;72290;48.808;9.222;2023-12-14T06:24:59;9.83;;;4.10;;
466;SDS011;72290;48.808;9.222;2023-12-14T06:27:25;6.30;;;4.03;;
466;SDS011;72290;48.808;9.222;2023-12-14T06:29:52;6.93;;;4.30;;
466;SDS011;72290;48.808;9.222;2023-12-14T06:32:18;4.93;;;3.73;;
466;SDS011;72290;48.808;9.222;2023-12-14T06:34:44;9.67;;;4.80;;
466;SDS011;72290;48.808;9.222;2023-12-14T06:37:10;14.60;;;6.17;;
466;SDS011;72290;48.808;9.222;2023-12-14T06:39:36;7.20;;;4.87;;
466;SDS011;72290;48.808;9.222;2023-12-14T06:42:02;7.30;;;4.90;;
466;SDS011;72290;48.808;9.222;2023-12-14T06:44:28;12.27;;;5.07;;
466;SDS011;72290;48.808;9.222;2023-12-14T06:46:55;8.03;;;4.80;;
466;SDS011;72290;48.808;9.222;2023-12-14T06:49:23;9.60;;;4.70;;
466;SDS011;72290;48.808;9.222;2023-12-14T06:51:49;7.53;;;4.50;;
466;SDS011;72290;48.808;9.222;2023-12-14T06:54:15;10.33;;;4.10;;
466;SDS011;72290;48.808;9.222;2023-12-14T06:56:41;7.10;;;5.00;;
466;SDS011;72290;48.808;9.222;2023-12-14T06:59:07;8.73;;;3.63;;
466;SDS011;72290;48.808;9.222;2023-12-14T07:01:33;8.30;;;4.40;;
466;SDS011;72290;48.808;9.222;2023-12-14T07:03:59;8.73;;;4.13;;
466;SDS011;72290;48.808;9.222;2023-12-14T07:06:24;5.90;;;3.90;;
466;SDS011;72290;48.808;9.222;2023-12-14T07:08:50;3.70;;;3.30;;
466;SDS011;72290;48.808;9.222;2023-12-14T07:11:16;11.60;;;4.37;;
466;SDS011;72290;48.808;9.222;2023-12-14T07:13:42;4.40;;;3.50;;
466;SDS011;72290;48.808;9.222;2023-12-14T07:16:09;5.50;;;3.20;;
466;SDS011;72290;48.808;9.222;2023-12-14T07:18:36;7.40;;;4.33;;
466;SDS011;72290;48.808;9.222;2023-12-14T07:21:03;6.23;;;4.30;;
466;SDS011;72290;48.808;9.222;2023-12-14T07:23:29;11.43;;;4.17;;
466;SDS011;72290;48.808;9.222;2023-12-14T07:25:55;5.90;;;3.77;;
466;SDS011;72290;48.808;9.222;2023-12-14T07:28:21;6.90;;;4.50;;
466;SDS011;72290;48.808;9.222;2023-12-14T07:30:48;9.67;;;5.00;;
466;SDS011;72290;48.808;9.222;2023-12-14T07:33:14;7.00;;;4.77;;
466;SDS011;72290;48.808;9.222;2023-12-14T07:35:40;10.90;;;5.10;;
466;SDS011;72290;48.808;9.222;2023-12-14T07:38:06;11.00;;;5.23;;
466;SDS011;72290;48.808;9.222;2023-12-14T07:40:32;9.17;;;4.80;;
466;SDS011;72290;48.808;9.222;2023-12-14T07:42:58;8.10;;;4.90;;
466;SDS011;72290;48.808;9.222;2023-12-14T07:45:24;11.83;;;5.37;;
466;SDS011;72290;48.808;9.222;2023-12-14T07:47:50;12.77;;;5.30;;
466;SDS011;72290;48.808;9.222;2023-12-14T07:50:16;10.40;;;5.70;;
466;SDS011;72290;48.808;9.222;2023-12-14T07:52:42;13.93;;;5.00;;
466;SDS011;72290;48.808;9.222;2023-12-14T07:55:08;11.00;;;5.93;;
466;SDS011;72290;48.808;9.222;2023-12-14T07:57:34;10.00;;;5.53;;
466;SDS011;72290;48.808;9.222;2023-12-14T08:00:00;11.10;;;5.53;;
466;SDS011;72290;48.808;9.222;2023-12-14T08:02:26;12.33;;;5.10;;
466;SDS011;72290;48.808;9.222;2023-12-14T08:04:52;10.10;;;5.60;;
466;SDS011;72290;48.808;9.222;2023-12-14T08:07:18;8.43;;;6.07;;
466;SDS011;72290;48.808;9.222;2023-12-14T08:09:44;6.87;;;4.90;;
466;SDS011;72290;48.808;9.222;2023-12-14T08:12:10;8.77;;;4.80;;
466;SDS011;72290;48.808;9.222;2023-12-14T08:14:36;14.30;;;5.70;;
466;SDS011;72290;48.808;9.222;2023-12-14T08:17:03;11.30;;;4.60;;
466;SDS011;72290;48.808;9.222;2023-12-14T08:19:29;11.90;;;7.03;;
466;SDS011;72290;48.808;9.222;2023-12-14T08:21:55;8.33;;;5.37;;
466;SDS011;72290;48.808;9.222;2023-12-14T08:24:21;9.80;;;5.20;;
466;SDS011;72290;48.808;9.222;2023-12-14T08:26:47;8.83;;;4.83;;
466;SDS011;72290;48.808;9.222;2023-12-14T08:29:13;11.03;;;5.53;;
466;SDS011;72290;48.808;9.222;2023-12-14T08:31:39;9.63;;;5.07;;
466;SDS011;72290;48.808;9.222;2023-12-14T08:34:05;14.67;;;6.60;;
466;SDS011;72290;48.808;9.222;2023-12-14T08:36:31;12.10;;;6.83;;
466;SDS011;72290;48.808;9.222;2023-12-14T08:38:57;8.67;;;5.17;;
466;SDS011;72290;48.808;9.222;2023-12-14T08:41:23;13.20;;;6.63;;
466;SDS011;72290;48.808;9.222;2023-12-14T08:43:49;9.17;;;5.10;;
466;SDS011;72290;48.808;9.222;2023-12-14T08:46:15;9.63;;;5.67;;
466;SDS011;72290;48.808;9.222;2023-12-14T08:48:41;10.27;;;6.50;;
466;SDS011;72290;48.808;9.222;2023-12-14T08:51:07;9.20;;;5.40;;
466;SDS011;72290;48.808;9.222;2023-12-14T08:53:33;10.60;;;6.67;;
466;SDS011;72290;48.808;9.222;2023-12-14T08:55:59;13.33;;;7.50;;
466;SDS011;72290;48.808;9.222;2023-12-14T08:58:25;12.80;;;6.50;;
466;SDS011;72290;48.808;9.222;2023-12-14T09:00:52;12.47;;;6.63;;
466;SDS011;72290;48.808;9.222;2023-12-14T09:03:18;13.37;;;7.13;;
466;SDS011;72290;48.808;9.222;2023-12-14T09:05:44;11.47;;;6.67;;
466;SDS011;72290;48.808;9.222;2023-12-14T09:08:11;19.53;;;8.10;;
466;SDS011;72290;48.808;9.222;2023-12-14T09:10:37;12.70;;;6.80;;
466;SDS011;72290;48.808;9.222;2023-12-14T09:13:04;14.33;;;6.83;;
466;SDS011;72290;48.808;9.222;2023-12-14T09:15:31;13.00;;;7.30;;
466;SDS011;72290;48.808;9.222;2023-12-14T09:17:57;15.00;;;8.83;;
466;SDS011;72290;48.808;9.222;2023-12-14T09:20:23;15.70;;;8.93;;
466;SDS011;72290;48.808;9.222;2023-12-14T09:22:49;14.23;;;8.80;;
466;SDS011;72290;48.808;9.222;2023-12-14T09:25:15;12.70;;;7.50;;
466;SDS011;72290;48.808;9.222;2023-12-14T09:27:41;14.47;;;7.30;;
466;SDS011;72290;48.808;9.222;2023-12-14T09:30:07;16.53;;;8.50;;
466;SDS011;72290;48.808;9.222;2023-12-14T09:32:34;14.27;;;7.87;;
466;SDS011;72290;48.808;9.222;2023-12-14T09:34:59;15.37;;;8.70;;
466;SDS011;72290;48.808;9.222;2023-12-14T09:37:26;17.73;;;7.97;;
466;SDS011;72290;48.808;9.222;2023-12-14T09:39:52;13.33;;;7.33;;
466;SDS011;72290;48.808;9.222;2023-12-14T09:42:18;13.17;;;6.70;;
466;SDS011;72290;48.808;9.222;2023-12-14T09:44:45;12.70;;;7.50;;
466;SDS011;72290;48.808;9.222;2023-12-14T09:47:12;12.67;;;7.20;;
466;SDS011;72290;48.808;9.222;2023-12-14T09:49:38;17.43;;;9.00;;
466;SDS011;72290;48.808;9.222;2023-12-14T09:52:07;17.67;;;9.10;;
466;SDS011;72290;48.808;9.222;2023-12-14T09:54:33;23.03;;;9.30;;
466;SDS011;72290;48.808;9.222;2023-12-14T09:56:59;15.00;;;8.67;;
466;SDS011;72290;48.808;9.222;2023-12-14T09:59:25;14.57;;;8.37;;
466;SDS011;72290;48.808;9.222;2023-12-14T10:01:51;18.00;;;9.07;;
466;SDS011;72290;48.808;9.222;2023-12-14T10:04:18;19.30;;;8.80;;
466;SDS011;72290;48.808;9.222;2023-12-14T10:06:45;14.33;;;8.30;;
466;SDS011;72290;48.808;9.222;2023-12-14T10:09:12;16.03;;;8.73;;
466;SDS011;72290;48.808;9.222;2023-12-14T10:11:40;17.87;;;8.70;;
466;SDS011;72290;48.808;9.222;2023-12-14T10:14:25;13.70;;;7.93;;
466;SDS011;72290;48.808;9.222;2023-12-14T10:16:51;12.67;;;7.77;;
466;SDS011;72290;48.808;9.222;2023-12-14T10:19:18;14.83;;;8.53;;
466;SDS011;72290;48.808;9.222;2023-12-14T10:21:45;16.53;;;9.43;;
466;SDS011;72290;48.808;9.222;2023-12-14T10:24:12;18.30;;;8.90;;
466;SDS011;72290;48.808;9.222;2023-12-14T10:26:38;15.13;;;8.47;;
466;SDS011;72290;48.808;9.222;2023-12-14T10:29:04;16.90;;;8.77;;
466;SDS011;72290;48.808;9.222;2023-12-14T10:31:31;13.90;;;8.37;;
466;SDS011;72290;48.808;9.222;2023-12-14T10:34:02;18.10;;;9.00;;
466;SDS011;72290;48.808;9.222;2023-12-14T10:36:28;17.60;;;9.00;;
466;SDS011;72290;48.808;9.222;2023-12-14T10:38:56;15.10;;;9.00;;
466;SDS011;72290;48.808;9.222;2023-12-14T10:41:22;21.80;;;9.70;;
466;SDS011;72290;48.808;9.222;2023-12-14T10:43:49;14.60;;;8.20;;
466;SDS011;72290;48.808;9.222;2023-12-14T10:46:16;22.33;;;9.73;;
466;SDS011;72290;48.808;9.222;2023-12-14T10:48:43;15.80;;;7.83;;
466;SDS011;72290;48.808;9.222;2023-12-14T10:51:11;14.30;;;8.27;;
466;SDS011;72290;48.808;9.222;2023-12-14T10:53:38;17.80;;;8.50;;
466;SDS011;72290;48.808;9.222;2023-12-14T10:56:04;14.37;;;8.27;;
466;SDS011;72290;48.808;9.222;2023-12-14T10:58:44;30.90;;;8.33;;
466;SDS011;72290;48.808;9.222;2023-12-14T11:01:21;18.87;;;7.83;;
466;SDS011;72290;48.808;9.222;2023-12-14T11:03:49;20.70;;;8.03;;
466;SDS011;72290;48.808;9.222;2023-12-14T11:06:26;14.33;;;7.40;;
466;SDS011;72290;48.808;9.222;2023-12-14T11:08:54;16.27;;;8.23;;
466;SDS011;72290;48.808;9.222;2023-12-14T11:11:21;13.30;;;7.60;;
466;SDS011;72290;48.808;9.222;2023-12-14T11:13:49;19.20;;;6.77;;
466;SDS011;72290;48.808;9.222;2023-12-14T11:16:17;11.30;;;6.90;;
466;SDS011;72290;48.808;9.222;2023-12-14T11:18:45;15.70;;;7.00;;
466;SDS011;72290;48.808;9.222;2023-12-14T11:21:11;15.70;;;6.33;;
466;SDS011;72290;48.808;9.222;2023-12-14T11:23:43;12.60;;;6.00;;
466;SDS011;72290;48.808;9.222;2023-12-14T11:26:09;11.63;;;5.77;;
466;SDS011;72290;48.808;9.222;2023-12-14T11:28:36;9.80;;;4.93;;
466;SDS011;72290;48.808;9.222;2023-12-14T11:31:03;19.47;;;6.47;;
466;SDS011;72290;48.808;9.222;2023-12-14T11:33:33;11.97;;;6.60;;
466;SDS011;72290;48.808;9.222;2023-12-14T11:35:59;14.10;;;5.67;;
466;SDS011;72290;48.808;9.222;2023-12-14T11:38:26;12.53;;;5.30;;
466;SDS011;72290;48.808;9.222;2023-12-14T11:40:52;8.37;;;4.67;;
466;SDS011;72290;48.808;9.222;2023-12-14T11:43:18;9.70;;;5.23;;
466;SDS011;72290;48.808;9.222;2023-12-14T11:45:49;13.30;;;6.00;;
466;SDS011;72290;48.808;9.222;2023-12-14T11:48:16;14.43;;;5.60;;
466;SDS011;72290;48.808;9.222;2023-12-14T11:50:42;14.80;;;6.90;;
466;SDS011;72290;48.808;9.222;2023-12-14T11:53:09;11.90;;;5.80;;
466;SDS011;72290;48.808;9.222;2023-12-14T11:55:37;14.30;;;6.70;;
466;SDS011;72290;48.808;9.222;2023-12-14T11:58:03;11.67;;;6.67;;
466;SDS011;72290;48.808;9.222;2023-12-14T12:00:29;14.03;;;6.77;;
466;SDS011;72290;48.808;9.222;2023-12-14T12:03:15;15.53;;;6.10;;
466;SDS011;72290;48.808;9.222;2023-12-14T12:05:43;9.63;;;6.27;;
466;SDS011;72290;48.808;9.222;2023-12-14T12:08:10;10.03;;;5.70;;
466;SDS011;72290;48.808;9.222;2023-12-14T12:10:36;11.97;;;4.73;;
466;SDS011;72290;48.808;9.222;2023-12-14T12:13:03;4.87;;;3.50;;
466;SDS011;72290;48.808;9.222;2023-12-14T12:15:32;7.20;;;4.10;;
466;SDS011;72290;48.808;9.222;2023-12-14T12:18:01;7.37;;;4.17;;
466;SDS011;72290;48.808;9.222;2023-12-14T12:20:27;5.73;;;3.90;;
466;SDS011;72290;48.808;9.222;2023-12-14T12:22:53;6.43;;;3.63;;
466;SDS011;72290;48.808;9.222;2023-12-14T12:25:19;10.87;;;2.63;;
466;SDS011;72290;48.808;9.222;2023-12-14T12:27:45;3.97;;;2.80;;
466;SDS011;72290;48.808;9.222;2023-12-14T12:30:12;5.57;;;3.07;;
466;SDS011;72290;48.808;9.222;2023-12-14T12:32:39;4.07;;;2.50;;
466;SDS011;72290;48.808;9.222;2023-12-14T12:35:06;5.43;;;3.30;;
466;SDS011;72290;48.808;9.222;2023-12-14T12:37:32;3.00;;;2.80;;
466;SDS011;72290;48.808;9.222;2023-12-14T12:39:58;7.43;;;3.90;;
466;SDS011;72290;48.808;9.222;2023-12-14T12:42:24;10.83;;;4.50;;
466;SDS011;72290;48.808;9.222;2023-12-14T12:44:50;5.60;;;3.83;;
466;SDS011;72290;48.808;9.222;2023-12-14T12:47:16;5.37;;;3.70;;
466;SDS011;72290;48.808;9.222;2023-12-14T12:49:42;7.93;;;3.77;;
466;SDS011;72290;48.808;9.222;2023-12-14T12:52:08;8.00;;;4.37;;
466;SDS011;72290;48.808;9.222;2023-12-14T12:54:35;6.70;;;3.83;;
466;SDS011;72290;48.808;9.222;2023-12-14T12:57:01;8.93;;;4.30;;
466;SDS011;72290;48.808;9.222;2023-12-14T12:59:27;7.77;;;3.73;;
466;SDS011;72290;48.808;9.222;2023-12-14T13:01:53;5.83;;;3.50;;
466;SDS011;72290;48.808;9.222;2023-12-14T13:04:20;4.47;;;3.80;;
466;SDS011;72290;48.808;9.222;2023-12-14T13:06:49;7.50;;;3.50;;
466;SDS011;72290;48.808;9.222;2023-12-14T13:09:16;6.23;;;3.50;;
466;SDS011;72290;48.808;9.222;2023-12-14T13:11:42;5.00;;;3.30;;
466;SDS011;72290;48.808;9.222;2023-12-14T13:14:09;6.70;;;3.53;;
466;SDS011;72290;48.808;9.222;2023-12-14T13:16:35;5.97;;;4.40;;
466;SDS011;72290;48.808;9.222;2023-12-14T13:19:02;10.43;;;4.70;;
466;SDS011;72290;48.808;9.222;2023-12-14T13:21:37;9.03;;;5.00;;
466;SDS011;72290;48.808;9.222;2023-12-14T13:24:03;14.23;;;6.40;;
466;SDS011;72290;48.808;9.222;2023-12-14T13:26:29;7.03;;;4.93;;
466;SDS011;72290;48.808;9.222;2023-12-14T13:28:55;10.40;;;4.93;;
466;SDS011;72290;48.808;9.222;2023-12-14T13:31:21;7.23;;;4.87;;
466;SDS011;72290;48.808;9.222;2023-12-14T13:33:47;8.70;;;4.37;;
466;SDS011;72290;48.808;9.222;2023-12-14T13:36:15;11.77;;;5.50;;
466;SDS011;72290;48.808;9.222;2023-12-14T13:38:41;7.13;;;3.93;;
466;SDS011;72290;48.808;9.222;2023-12-14T13:41:08;8.57;;;3.80;;
466;SDS011;72290;48.808;9.222;2023-12-14T13:43:34;5.43;;;3.57;;
466;SDS011;72290;48.808;9.222;2023-12-14T13:46:00;5.90;;;3.47;;
466;SDS011;72290;48.808;9.222;2023-12-14T13:48:26;7.60;;;4.10;;
466;SDS011;72290;48.808;9.222;2023-12-14T13:50:53;9.60;;;4.00;;
466;SDS011;72290;48.808;9.222;2023-12-14T13:53:20;4.33;;;3.53;;
466;SDS011;72290;48.808;9.222;2023-12-14T13:55:46;17.00;;;4.30;;
466;SDS011;72290;48.808;9.222;2023-12-14T13:58:13;6.70;;;4.27;;
466;SDS011;72290;48.808;9.222;2023-12-14T14:00:39;9.73;;;3.50;;
466;SDS011;72290;48.808;9.222;2023-12-14T14:03:06;9.03;;;3.40;;
466;SDS011;72290;48.808;9.222;2023-12-14T14:05:32;6.70;;;4.57;;
466;SDS011;72290;48.808;9.222;2023-12-14T14:07:58;9.00;;;4.17;;
466;SDS011;72290;48.808;9.222;2023-12-14T14:10:24;5.80;;;4.13;;
466;SDS011;72290;48.808;9.222;2023-12-14T14:12:50;8.70;;;4.70;;
466;SDS011;72290;48.808;9.222;2023-12-14T14:15:16;10.80;;;4.80;;
466;SDS011;72290;48.808;9.222;2023-12-14T14:17:42;8.30;;;4.90;;
466;SDS011;72290;48.808;9.222;2023-12-14T14:20:08;9.57;;;5.03;;
466;SDS011;72290;48.808;9.222;2023-12-14T14:22:35;22.63;;;7.10;;
466;SDS011;72290;48.808;9.222;2023-12-14T14:25:03;10.67;;;6.07;;
466;SDS011;72290;48.808;9.222;2023-12-14T14:27:30;12.50;;;6.07;;
466;SDS011;72290;48.808;9.222;2023-12-14T14:29:56;14.87;;;6.90;;
466;SDS011;72290;48.808;9.222;2023-12-14T14:32:22;11.80;;;6.43;;
466;SDS011;72290;48.808;9.222;2023-12-14T14:34:48;13.23;;;7.73;;
466;SDS011;72290;48.808;9.222;2023-12-14T14:37:14;14.63;;;7.83;;
466;SDS011;72290;48.808;9.222;2023-12-14T14:39:39;15.40;;;7.47;;
466;SDS011;72290;48.808;9.222;2023-12-14T14:42:08;17.43;;;7.57;;
466;SDS011;72290;48.808;9.222;2023-12-14T14:44:34;13.60;;;8.53;;
466;SDS011;72290;48.808;9.222;2023-12-14T14:47:00;16.20;;;7.87;;
466;SDS011;72290;48.808;9.222;2023-12-14T14:49:27;15.60;;;8.10;;
466;SDS011;72290;48.808;9.222;2023-12-14T14:51:53;20.13;;;8.37;;
466;SDS011;72290;48.808;9.222;2023-12-14T14:54:19;17.93;;;8.77;;
466;SDS011;72290;48.808;9.222;2023-12-14T14:56:45;21.97;;;10.83;;
466;SDS011;72290;48.808;9.222;2023-12-14T14:59:11;18.80;;;9.20;;
466;SDS011;72290;48.808;9.222;2023-12-14T15:01:40;18.27;;;7.97;;
466;SDS011;72290;48.808;9.222;2023-12-14T15:04:06;25.93;;;10.17;;
466;SDS011;72290;48.808;9.222;2023-12-14T15:06:32;22.40;;;9.80;;
466;SDS011;72290;48.808;9.222;2023-12-14T15:08:58;28.60;;;11.47;;
466;SDS011;72290;48.808;9.222;2023-12-14T15:11:24;26.70;;;11.40;;
466;SDS011;72290;48.808;9.222;2023-12-14T15:13:50;25.27;;;11.27;;
466;SDS011;72290;48.808;9.222;2023-12-14T15:16:17;23.47;;;10.00;;
466;SDS011;72290;48.808;9.222;2023-12-14T15:18:43;22.53;;;11.30;;
466;SDS011;72290;48.808;9.222;2023-12-14T15:21:10;19.60;;;9.90;;
466;SDS011;72290;48.808;9.222;2023-12-14T15:23:36;22.57;;;11.27;;
466;SDS011;72290;48.808;9.222;2023-12-14T15:26:03;28.90;;;11.90;;
466;SDS011;72290;48.808;9.222;2023-12-14T15:28:29;25.30;;;11.20;;
466;SDS011;72290;48.808;9.222;2023-12-14T15:30:55;28.70;;;12.40;;
466;SDS011;72290;48.808;9.222;2023-12-14T15:33:21;24.50;;;11.40;;
466;SDS011;72290;48.808;9.222;2023-12-14T15:35:46;25.90;;;11.13;;
466;SDS011;72290;48.808;9.222;2023-12-14T15:38:13;33.53;;;12.80;;
466;SDS011;72290;48.808;9.222;2023-12-14T15:40:39;33.93;;;13.67;;
466;SDS011;72290;48.808;9.222;2023-12-14T15:43:05;26.33;;;12.27;;
466;SDS011;72290;48.808;9.222;2023-12-14T15:45:31;26.30;;;12.13;;
466;SDS011;72290;48.808;9.222;2023-12-14T15:47:59;29.10;;;12.30;;
466;SDS011;72290;48.808;9.222;2023-12-14T15:50:26;32.13;;;13.20;;
466;SDS011;72290;48.808;9.222;2023-12-14T15:52:51;34.13;;;13.73;;
466;SDS011;72290;48.808;9.222;2023-12-14T15:55:17;31.80;;;13.33;;
466;SDS011;72290;48.808;9.222;2023-12-14T15:57:44;41.00;;;15.07;;
466;SDS011;72290;48.808;9.222;2023-12-14T16:00:10;27.00;;;13.27;;
466;SDS011;72290;48.808;9.222;2023-12-14T16:02:37;33.00;;;13.40;;
466;SDS011;72290;48.808;9.222;2023-12-14T16:05:03;31.40;;;14.20;;
466;SDS011;72290;48.808;9.222;2023-12-14T16:07:29;30.67;;;13.93;;
466;SDS011;72290;48.808;9.222;2023-12-14T16:09:55;26.63;;;12.40;;
466;SDS011;72290;48.808;9.222;2023-12-14T16:12:21;29.63;;;12.50;;
466;SDS011;72290;48.808;9.222;2023-12-14T16:14:48;35.13;;;14.43;;
466;SDS011;72290;48.808;9.222;2023-12-14T16:17:14;26.63;;;11.00;;
466;SDS011;72290;48.808;9.222;2023-12-14T16:19:40;25.90;;;11.33;;
466;SDS011;72290;48.808;9.222;2023-12-14T16:22:06;32.43;;;12.80;;
466;SDS011;72290;48.808;9.222;2023-12-14T16:24:32;31.10;;;12.30;;
466;SDS011;72290;48.808;9.222;2023-12-14T16:26:58;30.60;;;13.23;;
466;SDS011;72290;48.808;9.222;2023-12-14T16:29:24;32.30;;;12.90;;
466;SDS011;72290;48.808;9.222;2023-12-14T16:31:51;32.83;;;12.40;;
466;SDS011;72290;48.808;9.222;2023-12-14T16:34:17;26.63;;;11.10;;
466;SDS011;72290;48.808;9.222;2023-12-14T16:36:46;27.90;;;12.50;;
466;SDS011;72290;48.808;9.222;2023-12-14T16:39:12;27.50;;;11.70;;
466;SDS011;72290;48.808;9.222;2023-12-14T16:41:38;27.30;;;10.33;;
466;SDS011;72290;48.808;9.222;2023-12-14T16:44:04;27.27;;;11.50;;
466;SDS011;72290;48.808;9.222;2023-12-14T16:46:31;35.43;;;13.53;;
466;SDS011;72290;48.808;9.222;2023-12-14T16:48:57;32.37;;;12.97;;
466;SDS011;72290;48.808;9.222;2023-12-14T16:51:23;25.53;;;11.33;;
466;SDS011;72290;48.808;9.222;2023-12-14T16:53:50;27.00;;;13.13;;
466;SDS011;72290;48.808;9.222;2023-12-14T16:56:16;32.30;;;13.10;;
466;SDS011;72290;48.808;9.222;2023-12-14T16:58:42;26.97;;;12.40;;
466;SDS011;72290;48.808;9.222;2023-12-14T17:01:08;28.90;;;12.40;;
466;SDS011;72290;48.808;9.222;2023-12-14T17:03:35;30.33;;;12.40;;
466;SDS011;72290;48.808;9.222;2023-12-14T17:06:01;31.90;;;12.37;;
466;SDS011;72290;48.808;9.222;2023-12-14T17:08:27;34.50;;;12.83;;
466;SDS011;72290;48.808;9.222;2023-12-14T17:10:53;15.30;;;6.93;;
466;SDS011;72290;48.808;9.222;2023-12-14T17:13:22;17.40;;;7.00;;
466;SDS011;72290;48.808;9.222;2023-12-14T17:15:48;10.40;;;5.30;;
466;SDS011;72290;48.808;9.222;2023-12-14T17:18:14;10.73;;;4.93;;
466;SDS011;72290;48.808;9.222;2023-12-14T17:20:40;5.43;;;3.17;;
466;SDS011;72290;48.808;9.222;2023-12-14T17:23:06;9.13;;;4.80;;
466;SDS011;72290;48.808;9.222;2023-12-14T17:25:32;9.27;;;4.40;;
466;SDS011;72290;48.808;9.222;2023-12-14T17:27:58;7.60;;;4.30;;
466;SDS011;72290;48.808;9.222;2023-12-14T17:30:24;8.53;;;4.20;;
466;SDS011;72290;48.808;9.222;2023-12-14T17:32:51;9.87;;;4.53;;
466;SDS011;72290;48.808;9.222;2023-12-14T17:35:17;9.50;;;4.03;;
466;SDS011;72290;48.808;9.222;2023-12-14T17:37:44;12.23;;;4.03;;
466;SDS011;72290;48.808;9.222;2023-12-14T17:40:10;11.33;;;5.40;;
466;SDS011;72290;48.808;9.222;2023-12-14T17:42:36;12.60;;;5.73;;
466;SDS011;72290;48.808;9.222;2023-12-14T17:45:02;14.07;;;6.17;;
466;SDS011;72290;48.808;9.222;2023-12-14T17:47:29;13.53;;;6.20;;
466;SDS011;72290;48.808;9.222;2023-12-14T17:49:55;17.50;;;8.17;;
466;SDS011;72290;48.808;9.222;2023-12-14T17:52:21;12.43;;;5.83;;
466;SDS011;72290;48.808;9.222;2023-12-14T17:54:49;14.03;;;7.13;;
466;SDS011;72290;48.808;9.222;2023-12-14T17:57:16;16.87;;;7.40;;
466;SDS011;72290;48.808;9.222;2023-12-14T17:59:42;16.43;;;6.90;;
466;SDS011;72290;48.808;9.222;2023-12-14T18:02:08;15.47;;;7.17;;
466;SDS011;72290;48.808;9.222;2023-12-14T18:04:36;16.40;;;7.70;;
466;SDS011;72290;48.808;9.222;2023-12-14T18:07:02;21.80;;;9.27;;
466;SDS011;72290;48.808;9.222;2023-12-14T18:09:28;21.37;;;8.50;;
466;SDS011;72290;48.808;9.222;2023-12-14T18:11:54;18.20;;;9.20;;
466;SDS011;72290;48.808;9.222;2023-12-14T18:14:20;21.13;;;10.30;;
466;SDS011;72290;48.808;9.222;2023-12-14T18:16:46;23.67;;;10.87;;
466;SDS011;72290;48.808;9.222;2023-12-14T18:19:12;26.90;;;11.30;;
466;SDS011;72290;48.808;9.222;2023-12-14T18:21:38;19.07;;;8.90;;
466;SDS011;72290;48.808;9.222;2023-12-14T18:24:04;28.10;;;11.33;;
466;SDS011;72290;48.808;9.222;2023-12-14T18:26:31;30.87;;;14.30;;
466;SDS011;72290;48.808;9.222;2023-12-14T18:28:57;29.60;;;11.80;;
466;SDS011;72290;48.808;9.222;2023-12-14T18:31:23;26.30;;;11.73;;
466;SDS011;72290;48.808;9.222;2023-12-14T18:33:50;23.17;;;10.90;;
466;SDS011;72290;48.808;9.222;2023-12-14T18:36:18;23.30;;;10.73;;
466;SDS011;72290;48.808;9.222;2023-12-14T18:38:44;20.87;;;9.80;;
466;SDS011;72290;48.808;9.222;2023-12-14T18:41:10;26.00;;;10.20;;
466;SDS011;72290;48.808;9.222;2023-12-14T18:43:36;21.07;;;9.97;;
466;SDS011;72290;48.808;9.222;2023-12-14T18:46:04;26.03;;;10.90;;
466;SDS011;72290;48.808;9.222;2023-12-14T18:48:30;26.03;;;11.33;;
466;SDS011;72290;48.808;9.222;2023-12-14T18:50:58;20.37;;;9.80;;
466;SDS011;72290;48.808;9.222;2023-12-14T18:53:24;26.60;;;9.60;;
466;SDS011;72290;48.808;9.222;2023-12-14T18:55:50;20.17;;;9.40;;
466;SDS011;72290;48.808;9.222;2023-12-14T18:58:16;25.93;;;11.17;;
466;SDS011;72290;48.808;9.222;2023-12-14T19:00:42;19.33;;;10.60;;
466;SDS011;72290;48.808;9.222;2023-12-14T19:03:12;19.07;;;10.30;;
466;SDS011;72290;48.808;9.222;2023-12-14T19:05:38;24.03;;;10.03;;
466;SDS011;72290;48.808;9.222;2023-12-14T19:08:03;22.20;;;10.80;;
466;SDS011;72290;48.808;9.222;2023-12-14T19:10:29;31.13;;;10.37;;
466;SDS011;72290;48.808;9.222;2023-12-14T19:12:55;22.67;;;10.53;;
466;SDS011;72290;48.808;9.222;2023-12-14T19:15:21;26.30;;;10.30;;
466;SDS011;72290;48.808;9.222;2023-12-14T19:17:47;23.53;;;10.17;;
466;SDS011;72290;48.808;9.222;2023-12-14T19:20:13;25.17;;;10.30;;
466;SDS011;72290;48.808;9.222;2023-12-14T19:22:39;26.50;;;10.47;;
466;SDS011;72290;48.808;9.222;2023-12-14T19:25:06;24.93;;;9.83;;
466;SDS011;72290;48.808;9.222;2023-12-14T19:27:33;26.73;;;11.43;;
466;SDS011;72290;48.808;9.222;2023-12-14T19:29:59;24.03;;;8.80;;
466;SDS011;72290;48.808;9.222;2023-12-14T19:32:25;26.00;;;10.43;;
466;SDS011;72290;48.808;9.222;2023-12-14T19:34:51;21.07;;;10.67;;
466;SDS011;72290;48.808;9.222;2023-12-14T19:37:17;24.40;;;9.13;;
466;SDS011;72290;48.808;9.222;2023-12-14T19:39:43;21.50;;;8.53;;
466;SDS011;72290;48.808;9.222;2023-12-14T19:42:09;24.90;;;10.00;;
466;SDS011;72290;48.808;9.222;2023-12-14T19:44:35;23.83;;;9.13;;
466;SDS011;72290;48.808;9.222;2023-12-14T19:47:01;24.17;;;8.50;;
466;SDS011;72290;48.808;9.222;2023-12-14T19:49:27;20.70;;;7.47;;
466;SDS011;72290;48.808;9.222;2023-12-14T19:51:53;21.00;;;9.20;;
466;SDS011;72290;48.808;9.222;2023-12-14T19:54:19;20.43;;;7.60;;
466;SDS011;72290;48.808;9.222;2023-12-14T19:56:45;19.63;;;8.47;;
466;SDS011;72290;48.808;9.222;2023-12-14T19:59:11;25.30;;;8.00;;
466;SDS011;72290;48.808;9.222;2023-12-14T20:01:37;23.60;;;10.10;;
466;SDS011;72290;48.808;9.222;2023-12-14T20:04:05;25.27;;;10.43;;
466;SDS011;72290;48.808;9.222;2023-12-14T20:06:31;19.67;;;8.57;;
466;SDS011;72290;48.808;9.222;2023-12-14T20:08:57;17.00;;;8.07;;
466;SDS011;72290;48.808;9.222;2023-12-14T20:11:23;21.20;;;9.03;;
466;SDS011;72290;48.808;9.222;2023-12-14T20:13:51;22.93;;;8.77;;
466;SDS011;72290;48.808;9.222;2023-12-14T20:16:17;16.83;;;8.90;;
466;SDS011;72290;48.808;9.222;2023-12-14T20:18:43;20.77;;;8.80;;
466;SDS011;72290;48.808;9.222;2023-12-14T20:21:09;23.37;;;9.30;;
466;SDS011;72290;48.808;9.222;2023-12-14T20:23:35;18.70;;;8.40;;
466;SDS011;72290;48.808;9.222;2023-12-14T20:26:01;14.87;;;7.77;;
466;SDS011;72290;48.808;9.222;2023-12-14T20:28:27;18.43;;;7.87;;
466;SDS011;72290;48.808;9.222;2023-12-14T20:30:53;12.73;;;6.97;;
466;SDS011;72290;48.808;9.222;2023-12-14T20:33:19;19.23;;;9.10;;
466;SDS011;72290;48.808;9.222;2023-12-14T20:35:45;17.53;;;7.30;;
466;SDS011;72290;48.808;9.222;2023-12-14T20:38:11;15.40;;;7.17;;
466;SDS011;72290;48.808;9.222;2023-12-14T20:40:37;13.17;;;6.00;;
466;SDS011;72290;48.808;9.222;2023-12-14T20:43:03;14.20;;;6.60;;
466;SDS011;72290;48.808;9.222;2023-12-14T20:45:29;11.80;;;5.60;;
466;SDS011;72290;48.808;9.222;2023-12-14T20:47:55;13.20;;;5.63;;
466;SDS011;72290;48.808;9.222;2023-12-14T20:50:21;19.77;;;5.80;;
466;SDS011;72290;48.808;9.222;2023-12-14T20:52:47;9.70;;;5.13;;
466;SDS011;72290;48.808;9.222;2023-12-14T20:55:13;11.80;;;5.50;;
466;SDS011;72290;48.808;9.222;2023-12-14T20:57:39;6.70;;;3.80;;
466;SDS011;72290;48.808;9.222;2023-12-14T21:00:06;9.87;;;5.03;;